Map

Track Data

SID SEASON NUMBER BASIN SUBBASIN NAME ISO_TIME NATURE LAT LON WMO_WIND WMO_PRES WMO_AGENCY TRACK_TYPE DIST2LAND LANDFALL IFLAG USA_AGENCY USA_ATCF_ID USA_LAT USA_LON USA_RECORD USA_STATUS USA_WIND USA_PRES USA_SSHS USA_R34_NE USA_R34_SE USA_R34_SW USA_R34_NW USA_R50_NE USA_R50_SE USA_R50_SW USA_R50_NW USA_R64_NE USA_R64_SE USA_R64_SW USA_R64_NW USA_POCI USA_ROCI USA_RMW USA_EYE TOKYO_LAT TOKYO_LON TOKYO_GRADE TOKYO_WIND TOKYO_PRES TOKYO_R50_DIR TOKYO_R50_LONG TOKYO_R50_SHORT TOKYO_R30_DIR TOKYO_R30_LONG TOKYO_R30_SHORT TOKYO_LAND CMA_LAT CMA_LON CMA_CAT CMA_WIND CMA_PRES HKO_LAT HKO_LON HKO_CAT HKO_WIND HKO_PRES NEWDELHI_LAT NEWDELHI_LON NEWDELHI_GRADE NEWDELHI_WIND NEWDELHI_PRES NEWDELHI_CI NEWDELHI_DP NEWDELHI_POCI REUNION_LAT REUNION_LON REUNION_TYPE REUNION_WIND REUNION_PRES REUNION_TNUM REUNION_CI REUNION_RMW REUNION_R34_NE REUNION_R34_SE REUNION_R34_SW REUNION_R34_NW REUNION_R50_NE REUNION_R50_SE REUNION_R50_SW REUNION_R50_NW REUNION_R64_NE REUNION_R64_SE REUNION_R64_SW REUNION_R64_NW BOM_LAT BOM_LON BOM_TYPE BOM_WIND BOM_PRES BOM_TNUM BOM_CI BOM_RMW BOM_R34_NE BOM_R34_SE BOM_R34_SW BOM_R34_NW BOM_R50_NE BOM_R50_SE BOM_R50_SW BOM_R50_NW BOM_R64_NE BOM_R64_SE BOM_R64_SW BOM_R64_NW BOM_ROCI BOM_POCI BOM_EYE BOM_POS_METHOD BOM_PRES_METHOD NADI_LAT NADI_LON NADI_CAT NADI_WIND NADI_PRES WELLINGTON_LAT WELLINGTON_LON WELLINGTON_WIND WELLINGTON_PRES DS824_LAT DS824_LON DS824_STAGE DS824_WIND DS824_PRES TD9636_LAT TD9636_LON TD9636_STAGE TD9636_WIND TD9636_PRES TD9635_LAT TD9635_LON TD9635_WIND TD9635_PRES TD9635_ROCI NEUMANN_LAT NEUMANN_LON NEUMANN_CLASS NEUMANN_WIND NEUMANN_PRES MLC_LAT MLC_LON MLC_CLASS MLC_WIND MLC_PRES USA_GUST BOM_GUST BOM_GUST_PER REUNION_GUST REUNION_GUST_PER USA_SEAHGT USA_SEARAD_NE USA_SEARAD_SE USA_SEARAD_SW USA_SEARAD_NW STORM_SPEED STORM_DIR
1893315N11124 1893 61 WP MM NOT_NAMED 1893-11-10 16:00:00 NR 10.5000 123.800 main 0 0 __________O___ -1 10.5000 123.800 3 2 289
1893315N11124 1893 61 WP MM NOT_NAMED 1893-11-10 18:00:00 NR 10.5181 123.737 main 0 0 __________P___ -1 10.5181 123.737 3 2 287
1893315N11124 1893 61 WP MM NOT_NAMED 1893-11-10 21:00:00 NR 10.5511 123.628 main 10 0 __________P___ -1 10.5511 123.628 3 3 288
1893315N11124 1893 61 WP MM NOT_NAMED 1893-11-11 00:00:00 NR 10.5986 123.484 main 0 0 __________P___ -1 10.5986 123.484 3 4 289
1893315N11124 1893 61 WP MM NOT_NAMED 1893-11-11 03:00:00 NR 10.6696 123.283 main 0 0 __________P___ -1 10.6696 123.283 3 4 290
1893315N11124 1893 61 WP MM NOT_NAMED 1893-11-11 04:00:00 NR 10.7000 123.200 main 0 0 __________O___ -1 10.7000 123.200 4 6 291
1893315N11124 1893 61 WP MM NOT_NAMED 1893-11-11 06:00:00 NR 10.7715 123.007 main 0 0 __________P___ -1 10.7715 123.007 4 7 290
1893315N11124 1893 61 WP MM NOT_NAMED 1893-11-11 09:00:00 NR 10.8978 122.660 main 0 0 __________P___ -1 10.8978 122.660 4 8 290
1893315N11124 1893 61 WP MM NOT_NAMED 1893-11-11 12:00:00 NR 11.0329 122.265 main 0 0 __________P___ -1 11.0329 122.265 4 8 288
1893315N11124 1893 61 WP MM NOT_NAMED 1893-11-11 15:00:00 NR 11.1613 121.843 main 32 32 __________P___ -1 11.1613 121.843 4 9 287
1893315N11124 1893 61 WP MM NOT_NAMED 1893-11-11 16:00:00 NR 11.2000 121.700 main 43 43 __________O___ -1 11.2000 121.700 4 9 284
1893315N11124 1893 61 WP MM NOT_NAMED 1893-11-11 18:00:00 NR 11.2641 121.412 main 70 70 __________P___ -1 11.2641 121.412 4 9 282
1893315N11124 1893 61 WP MM NOT_NAMED 1893-11-11 21:00:00 NR 11.3478 120.968 main 101 92 __________P___ -1 11.3478 120.968 4 9 280
1893315N11124 1893 61 WP MM NOT_NAMED 1893-11-12 00:00:00 NR 11.4190 120.530 main 98 58 __________P___ -1 11.4190 120.530 4 8 279
1893315N11124 1893 61 WP MM NOT_NAMED 1893-11-12 03:00:00 NR 11.4809 120.124 main 58 49 __________P___ -1 11.4809 120.124 4 8 279
1893315N11124 1893 61 WP MM NOT_NAMED 1893-11-12 04:00:00 NR 11.5000 120.000 main 49 31 __________O___ -1 11.5000 120.000 4 7 281
1893315N11124 1893 61 WP MM NOT_NAMED 1893-11-12 06:00:00 NR 11.5413 119.793 main 31 31 __________P___ -1 11.5413 119.793 4 6 282
1893315N11124 1893 61 WP MM NOT_NAMED 1893-11-12 09:00:00 NR 11.5973 119.520 main 33 33 __________P___ -1 11.5973 119.520 4 5 281
1893315N11124 1893 61 WP MM NOT_NAMED 1893-11-12 12:00:00 NR 11.6462 119.266 main 40 40 __________P___ -1 11.6462 119.266 4 5 280
1893315N11124 1893 61 WP MM NOT_NAMED 1893-11-12 15:00:00 NR 11.6878 118.998 main 70 70 __________P___ -1 11.6878 118.998 4 5 279
1893315N11124 1893 61 WP MM NOT_NAMED 1893-11-12 16:00:00 NR 11.7000 118.900 main 78 78 __________O___ -1 11.7000 118.900 4 6 284
1893315N11124 1893 61 WP MM NOT_NAMED 1893-11-12 18:00:00 NR 11.7560 118.715 main 101 101 __________P___ -1 11.7560 118.715 4 6 286
1893315N11124 1893 61 WP MM NOT_NAMED 1893-11-12 21:00:00 NR 11.8344 118.414 main 128 128 __________P___ -1 11.8344 118.414 4 7 280
1893315N11124 1893 61 WP MM NOT_NAMED 1893-11-13 00:00:00 NR 11.8735 118.049 main 171 171 __________P___ -1 11.8735 118.049 4 8 270
1893315N11124 1893 61 WP MM NOT_NAMED 1893-11-13 03:00:00 NR 11.8360 117.584 main 207 207 __________P___ -1 11.8360 117.584 4 10 263
1893315N11124 1893 61 WP MM NOT_NAMED 1893-11-13 04:00:00 NR 11.8000 117.400 main 228 228 __________O___ -1 11.8000 117.400 7 13 257
1893315N11124 1893 61 WP MM NOT_NAMED 1893-11-13 06:00:00 NR 11.6906 116.964 main 266 274 __________P___ -1 11.6906 116.964 7 15 253
1893315N11124 1893 61 WP MM NOT_NAMED 1893-11-13 09:00:00 NR 11.4444 116.208 main 302 302 __________P___ -1 11.4444 116.208 7 17 250
1893315N11124 1893 61 WP MM NOT_NAMED 1893-11-13 12:00:00 NR 11.1189 115.388 main 336 344 __________P___ -1 11.1189 115.388 7 18 246
1893315N11124 1893 61 WP MM NOT_NAMED 1893-11-13 15:00:00 NR 10.7363 114.564 main 376 385 __________P___ -1 10.7363 114.564 7 18 244
1893315N11124 1893 61 WP MM NOT_NAMED 1893-11-13 16:00:00 NR 10.6000 114.300 main 398 398 __________O___ -1 10.6000 114.300 7 18 240
1893315N11124 1893 61 WP MM NOT_NAMED 1893-11-13 18:00:00 NR 10.3028 113.788 main 428 433 __________P___ -1 10.3028 113.788 7 18 238
1893315N11124 1893 61 WP MM NOT_NAMED 1893-11-13 21:00:00 NR 9.81855 113.043 main 466 434 __________P___ -1 9.81855 113.043 7 17 236
1893315N11124 1893 61 WP MM NOT_NAMED 1893-11-14 00:00:00 NR 9.33798 112.359 main 440 407 __________P___ -1 9.33798 112.359 7 16 234
1893315N11124 1893 61 WP MM NOT_NAMED 1893-11-14 03:00:00 NR 8.91722 111.770 main 415 407 __________P___ -1 8.91722 111.770 7 14 234
1893315N11124 1893 61 WP MM NOT_NAMED 1893-11-14 04:00:00 NR 8.80000 111.600 main 407 399 __________O___ -1 8.80000 111.600 7 11 237
1893315N11124 1893 61 WP MM NOT_NAMED 1893-11-14 06:00:00 NR 8.63354 111.323 main 402 391 __________P___ -1 8.63354 111.323 7 8 240
1893315N11124 1893 61 WP MM NOT_NAMED 1893-11-14 09:00:00 NR 8.46010 111.002 main 391 389 __________P___ -1 8.46010 111.002 7 6 243
1893315N11124 1893 61 WP MM NOT_NAMED 1893-11-14 12:00:00 NR 8.34199 110.743 main 391 378 __________P___ -1 8.34199 110.743 7 6 246
1893315N11124 1893 61 WP MM NOT_NAMED 1893-11-14 15:00:00 NR 8.23839 110.492 main 386 380 __________P___ -1 8.23839 110.492 7 6 247
1893315N11124 1893 61 WP MM NOT_NAMED 1893-11-14 16:00:00 NR 8.20000 110.400 main 380 370 __________O___ -1 8.20000 110.400 7 8 243
1893315N11124 1893 61 WP MM NOT_NAMED 1893-11-14 18:00:00 NR 8.06291 110.149 main 370 370 __________P___ -1 8.06291 110.149 7 9 241
1893315N11124 1893 61 WP MM NOT_NAMED 1893-11-14 21:00:00 NR 7.85034 109.752 main 370 369 __________P___ -1 7.85034 109.752 7 9 243
1893315N11124 1893 61 WP MM NOT_NAMED 1893-11-15 00:00:00 NR 7.65994 109.361 main 369 361 __________P___ -1 7.65994 109.361 7 8 246
1893315N11124 1893 61 WP MM NOT_NAMED 1893-11-15 03:00:00 NR 7.52609 109.005 main 361 353 __________P___ -1 7.52609 109.005 7 7 251
1893315N11124 1893 61 WP MM NOT_NAMED 1893-11-15 04:00:00 NR 7.50000 108.900 main 353 337 __________O___ -1 7.50000 108.900 7 5 262
1893315N11124 1893 61 WP MM NOT_NAMED 1893-11-15 06:00:00 NR 7.49012 108.732 main 337 321 __________P___ -1 7.49012 108.732 7 5 276
1893315N11124 1893 61 WP MM NOT_NAMED 1893-11-15 09:00:00 NR 7.53845 108.524 main 321 298 __________P___ -1 7.53845 108.524 7 4 291
1893315N11124 1893 61 WP MM NOT_NAMED 1893-11-15 12:00:00 NR 7.63756 108.345 main 298 274 __________P___ -1 7.63756 108.345 7 4 302
1893315N11124 1893 61 WP MM NOT_NAMED 1893-11-15 15:00:00 NR 7.75928 108.165 main 274 266 __________P___ -1 7.75928 108.165 7 4 304
1893315N11124 1893 61 WP MM NOT_NAMED 1893-11-15 16:00:00 NR 7.80000 108.100 main 266 251 __________O___ -1 7.80000 108.100 7 5 300
1893315N11124 1893 61 WP MM NOT_NAMED 1893-11-15 18:00:00 NR 7.87697 107.959 main 251 220 __________P___ -1 7.87697 107.959 7 5 296
1893315N11124 1893 61 WP MM NOT_NAMED 1893-11-15 21:00:00 NR 7.98231 107.722 main 220 198 __________P___ -1 7.98231 107.722 7 5 292
1893315N11124 1893 61 WP MM NOT_NAMED 1893-11-16 00:00:00 NR 8.07877 107.463 main 198 170 __________P___ -1 8.07877 107.463 7 6 290
1893315N11124 1893 61 WP MM NOT_NAMED 1893-11-16 03:00:00 NR 8.17007 107.192 main 170 164 __________P___ -1 8.17007 107.192 7 6 289
1893315N11124 1893 61 WP MM NOT_NAMED 1893-11-16 04:00:00 NR 8.20000 107.100 main 164 __________O___ -1 8.20000 107.100 7 6 288

Digital Typhoon Data and Search

About IBTrACS Database

This database is a web-friendly format of International Best Track Archive for Climate Stewardship (IBTrACS), a global best track data archive curated by NOAA dating back to 1842.

Updated: 2021-12-08